Aérodrome :
LOGIN :

S'inscrire | Disclaimer

   EN    FR    IT 

 










Légende :    VFR   VFR Marginal   IFR   IFR Intensif   IFR Très Intensif
Visi : 
Plafond : 
>= 8 km
>= 3000ft
5 à 8 km
1000 à 3000 ft
1500m à 5 km
500 à 1000 ft
800 à 1500m
200 à 500 ft
< 800m
< 200 ft
Symboles :   Orages  Brouillard  Fortes neiges  Fortes précipitations  Vent > 20 kt
SIGMETs :   Divers  Orages  Givrage  Turbulence  Onde Orograph.  Cendres Volcan.






- Altitude de l'aérodrome : 529 ft
- Code IATA : CHR


LFLX - Chateauroux

DERNIER METAR :
  • 032000Z AUTO 17005KT 9999 ///TCU 17/15 Q1002 TEMPO 20020G35KT 4000 SHRA SCT050CB BKN060

METARs EXPIRÉS :
  • 031930Z AUTO 15006KT 9999 FEW040 BKN100 OVC130 18/16 Q1002 TEMPO 20020G35KT 4000 SHRA SCT050CB BKN060
  • 031900Z AUTO 14004KT 9999 VCTS FEW033/// OVC092/// ///CB 19/17 Q1002 TEMPO 20020G35KT 3000 -TSRAGR
  • 031830Z AUTO 10002KT 9999 FEW033/// BKN100/// ///TCU 19/17 Q1002 TEMPO 20020G35KT 3000 -TSRAGR BKN040CB
  • 031800Z AUTO VRB02KT 9999 FEW040/// BKN094/// OVC120/// ///TCU 19/17 Q1002 TEMPO 20020G35KT 3000 -TSRAGR BKN040CB
  • 031730Z AUTO 12004KT 090V150 9999 -RA ///TCU 19/16 Q1003 TEMPO 20020G35KT 3000 -TSRAGR BKN040CB

TAF TAF LFLX
Valide du 03 à 18h jusqu'au 05 à 00h UTC


031700Z 0318/0424 22005KT CAVOK
TEMPO 0318/0413 4000 SHRA SCT050CB BKN060
PROB40
TEMPO 0318/0321 20020G35KT 3000 -TSRAGR BKN040CB
TEMPO 0403/0408 BKN012
BECMG 0408/0411 30008KT BKN030
TEMPO 0414/0418 30010G20KT 6000 -SHRA SCT030CB SCT040
BECMG 0418/0421 CAVOK



MET'MAP, la Météo Aéronautique d'un coup d'oeil ! - Copyright ORBIFLY Décembre 2007 - Disclaimer

ORBIFLY MET'MAP TEAM :

Programmation & Développement : Alexandra Zaïnal
Sur une idée originale de : Baudouin d'Aumeries
Assistance à la programmation : Marc-Olivier Méhu
Soutien technique & logistique : Manuel Goepfert

Contact : metmap@orbifly.com




SOURCES & CREDITS :

   NOAA